Lacey Spring, Virginia
Current Conditions -  °F | °C
As of 7:55 AM on Saturday 20 Dec 2014 (Local Time) from K8W2 Reporting Station
Clear Clear  
Wind Chill: 22°   Ceiling: Unl
Heat Index: 22°   Visibility: 7mi
Dew Point: 20°   Wind: 0mph
Humidity: 91%   Direction: NA
Pressure: 30.28"   Gusts: NA
Location:  38.54°N, 78.77°W
Report Text: K8W2 201255Z AUTO 00000KT 7SM CLR M05/M06 A3028 RMK AO1 T10531065
Loading
Personal Weather Stations






























Interactive Weather Map New forecast layout! Learn more

10-Day Weather Forecast

Advertisements
Track Severe Weather on mobile